Seo Young — D7LH — position and weather

sailwx.info

Track history (hours):
 
Tides and Currents Weather Stations Pressure Air Temp Water Temp Dewpoint Dewpoint Depression Visibility Wind Speed Wind Dir Waves Ship Positions

Seo Young

Last reported at 2014-Aug-18 19:33 UTC. Time now 2014-Aug-21 10:16 UTC.
Position N 01°15' E 104°04'.

Length 121 m; draft 8.6 m.

Type: Tanker. MMSI: 440036000.

Date/timePositionNaut miles runAvg speedWind from/ knotsBaromVisibWave heightAir tempDewpointWater temp
2014-Aug-18 19:33N 01°15' E 104°04'1413.6
2014-Aug-18 18:33N 01°11' E 103°51'11 0.3
2014-Aug-17 08:28N 01°16' E 103°41'10 0.4
2014-Aug-16 05:33N 01°11' E 103°50'1212.5
2014-Aug-16 04:33N 01°16' E 104°01'11 0.4
2014-Aug-15 03:21N 01°16' E 104°12'1214.6
2014-Aug-15 02:33N 01°14' E 104°01'22 1.1
2014-Aug-14 06:18N 01°16' E 103°39'4 0.6
2014-Aug-13 23:24N 01°15' E 103°43'3 0.1
2014-Aug-13 00:14N 01°18' E 103°43'1 1.9
2014-Aug-12 23:32N 01°17' E 103°44'6 0.3
2014-Aug-12 01:17N 01°14' E 103°39'11 3.9
2014-Aug-11 22:27N 01°11' E 103°49'1011.4
2014-Aug-11 21:33N 01°15' E 103°59'1211.6
2014-Aug-11 20:33N 01°17' E 104°10'11 0.7
2014-Aug-11 05:33N 01°14' E 103°60'11 0.3
2014-Aug-09 23:26N 01°13' E 103°49'0 0.4
2014-Aug-09 22:07N 01°13' E 103°50'0 0.0
2014-Aug-09 20:28N 01°13' E 103°50'1 0.7
2014-Aug-09 18:33N 01°12' E 103°49'2 2.0
2014-Aug-09 17:33N 01°12' E 103°47'1 1.4
2014-Aug-09 16:33N 01°12' E 103°49'6 6.2
2014-Aug-09 15:33N 01°14' E 103°43'4 1.2
2014-Aug-09 12:05N 01°13' E 103°39'5 5.0
2014-Aug-09 11:04N 01°09' E 103°42'7 8.2
2014-Aug-09 10:09N 01°11' E 103°50'712.2
2014-Aug-09 09:33N 01°14' E 103°56'1312.1
2014-Aug-09 08:30N 01°17' E 104°09'  
Track history (hours):
 
Tides and Currents Weather Stations Pressure Air Temp Water Temp Dewpoint Dewpoint Depression Visibility Wind Speed Wind Dir Waves Ship Positions

Seo Young

Last reported at 2014-Aug-18 19:33 UTC. Time now 2014-Aug-21 10:16 UTC.
Position N 01°15' E 104°04'.

Length 121 m; draft 8.6 m.

Type: Tanker. MMSI: 440036000.

Date/timePositionNaut miles runAvg speedWind from/ knotsBaromVisibWave heightAir tempDewpointWater temp
2014-Aug-18 19:33N 01°15' E 104°04'1413.6
2014-Aug-18 18:33N 01°11' E 103°51'11 0.3
2014-Aug-17 08:28N 01°16' E 103°41'10 0.4
2014-Aug-16 05:33N 01°11' E 103°50'1212.5
2014-Aug-16 04:33N 01°16' E 104°01'11 0.4
2014-Aug-15 03:21N 01°16' E 104°12'1214.6
2014-Aug-15 02:33N 01°14' E 104°01'22 1.1
2014-Aug-14 06:18N 01°16' E 103°39'4 0.6
2014-Aug-13 23:24N 01°15' E 103°43'3 0.1
2014-Aug-13 00:14N 01°18' E 103°43'1 1.9
2014-Aug-12 23:32N 01°17' E 103°44'6 0.3
2014-Aug-12 01:17N 01°14' E 103°39'11 3.9
2014-Aug-11 22:27N 01°11' E 103°49'1011.4
2014-Aug-11 21:33N 01°15' E 103°59'1211.6
2014-Aug-11 20:33N 01°17' E 104°10'11 0.7
2014-Aug-11 05:33N 01°14' E 103°60'11 0.3
2014-Aug-09 23:26N 01°13' E 103°49'0 0.4
2014-Aug-09 22:07N 01°13' E 103°50'0 0.0
2014-Aug-09 20:28N 01°13' E 103°50'1 0.7
2014-Aug-09 18:33N 01°12' E 103°49'2 2.0
2014-Aug-09 17:33N 01°12' E 103°47'1 1.4
2014-Aug-09 16:33N 01°12' E 103°49'6 6.2
2014-Aug-09 15:33N 01°14' E 103°43'4 1.2
2014-Aug-09 12:05N 01°13' E 103°39'5 5.0
2014-Aug-09 11:04N 01°09' E 103°42'7 8.2
2014-Aug-09 10:09N 01°11' E 103°50'712.2
2014-Aug-09 09:33N 01°14' E 103°56'1312.1
2014-Aug-09 08:30N 01°17' E 104°09'  

Dump ship's entire track history